Time;durP1;ratioP1;P1;durP2;ratioP2;P2;SDS_P1;SDS_P2;PMS_P1;PMS_P2;Temp;Humidity;BMP_temperature;BMP_pressure;BME280_temperature;BME280_humidity;BME280_pressure;Samples;Min_cycle;Max_cycle;Signal;HPM_P1;HPM_P2
2023/10/01 00:00:12;;;;;;;0.55;0.55;;;14.10;99.90;;;;;;5082509;28;20580;-84
2023/10/01 00:02:39;;;;;;;0.10;0.10;;;14.30;99.90;;;;;;5082033;28;20024;-79
2023/10/01 00:05:06;;;;;;;0.13;0.13;;;13.20;99.90;;;;;;5051416;28;20128;-82
2023/10/01 00:07:39;;;;;;;0.10;0.10;;;14.10;99.90;;;;;;5086173;28;20501;-83
2023/10/01 00:10:10;;;;;;;0.10;0.10;;;14.10;99.90;;;;;;5086836;28;20028;-76
2023/10/01 00:12:40;;;;;;;0.10;0.10;;;14.10;99.90;;;;;;5089137;28;20047;-76
2023/10/01 00:15:12;;;;;;;0.10;0.10;;;14.10;99.90;;;;;;5088206;28;20206;-78
2023/10/01 00:17:39;;;;;;;0.15;0.15;;;14.10;99.90;;;;;;5085056;28;20026;-75
2023/10/01 00:20:18;;;;;;;0.13;0.13;;;14.10;99.90;;;;;;5082820;28;20289;-77
2023/10/01 00:22:51;;;;;;;0.52;0.52;;;14.20;99.90;;;;;;5082206;28;20016;-75
2023/10/01 00:25:18;;;;;;;0.20;0.20;;;14.20;99.90;;;;;;5080220;28;20216;-75
2023/10/01 00:27:45;;;;;;;0.35;0.35;;;14.30;99.90;;;;;;5080494;28;20044;-75
2023/10/01 00:30:11;;;;;;;0.10;0.10;;;14.20;99.90;;;;;;5080798;28;20067;-75
2023/10/01 00:32:38;;;;;;;1.95;1.85;;;14.10;99.90;;;;;;5061723;28;20020;-75
2023/10/01 00:35:06;;;;;;;10.10;9.48;;;14.10;99.90;;;;;;5080684;28;20115;-78
2023/10/01 00:37:33;;;;;;;6.18;5.82;;;14.10;99.90;;;;;;5081572;28;20016;-75
2023/10/01 00:40:00;;;;;;;7.82;7.40;;;14.10;99.90;;;;;;5064540;28;20299;-77
2023/10/01 00:42:32;;;;;;;2.30;1.92;;;14.20;99.90;;;;;;5065537;28;20036;-77
2023/10/01 00:44:58;;;;;;;13.15;12.35;;;14.20;99.90;;;;;;5083674;28;20624;-78
2023/10/01 00:47:27;;;;;;;0.55;0.55;;;14.20;99.90;;;;;;5086744;28;20509;-77
2023/10/01 00:49:54;;;;;;;0.30;0.30;;;14.20;99.90;;;;;;5084496;28;20036;-77
2023/10/01 00:52:20;;;;;;;0.03;0.03;;;17.00;99.90;;;;;;5064286;28;20026;-76
2023/10/01 00:54:52;;;;;;;10.85;10.05;;;14.10;99.90;;;;;;5083183;28;20036;-77
2023/10/01 00:57:21;;;;;;;17.30;9.90;;;16.60;99.90;;;;;;5082710;28;20028;-77
2023/10/01 00:59:48;;;;;;;18.63;12.50;;;14.00;99.90;;;;;;5066025;28;20554;-77
2023/10/01 01:02:17;;;;;;;5.32;5.03;;;14.10;99.90;;;;;;5069070;28;20392;-90
2023/10/01 01:05:05;;;;;;;0.20;0.20;;;14.30;99.90;;;;;;5089251;28;20115;-88
2023/10/01 01:07:36;;;;;;;3.17;2.80;;;14.10;99.90;;;;;;5087693;28;20099;-91
2023/10/01 01:10:03;;;;;;;0.10;0.10;;;14.50;99.90;;;;;;5083072;28;20024;-84
2023/10/01 01:12:29;;;;;;;0.10;0.10;;;14.20;99.90;;;;;;5082554;28;20019;-88
2023/10/01 01:14:58;;;;;;;0.30;0.30;;;15.80;99.90;;;;;;5087345;28;20216;-88
2023/10/01 01:17:24;;;;;;;0.32;0.32;;;14.30;99.90;;;;;;5087333;28;20032;-87
2023/10/01 01:19:55;;;;;;;0.82;0.82;;;14.30;99.90;;;;;;5083361;28;20449;-74
2023/10/01 01:22:29;;;;;;;1.13;1.13;;;14.20;99.90;;;;;;5087403;28;20312;-78
2023/10/01 01:25:00;;;;;;;0.10;0.10;;;14.30;99.90;;;;;;5084746;28;20043;-76
2023/10/01 01:27:31;;;;;;;0.20;0.20;;;14.10;99.90;;;;;;5084351;28;20012;-80
2023/10/01 01:29:57;;;;;;;0.40;0.40;;;14.20;99.90;;;;;;5086180;28;20407;-81
2023/10/01 01:32:25;;;;;;;0.57;0.57;;;14.20;99.90;;;;;;5087273;28;20016;-78
2023/10/01 01:34:54;;;;;;;0.10;0.10;;;14.10;99.90;;;;;;5090800;28;20084;-80
2023/10/01 01:37:30;;;;;;;0.10;0.10;;;14.30;99.90;;;;;;5084578;28;20020;-86
2023/10/01 01:39:57;;;;;;;0.93;0.93;;;14.10;99.90;;;;;;5083145;28;20328;-77
2023/10/01 01:42:24;;;;;;;0.00;0.00;;;14.10;99.90;;;;;;5083952;28;20095;-79
2023/10/01 01:47:36;;;;;;;0.10;0.10;;;14.10;99.90;;;;;;5083391;28;20035;-79
2023/10/01 01:50:17;;;;;;;0.10;0.10;;;14.10;99.90;;;;;;5047688;28;20342;-78
2023/10/01 01:52:47;;;;;;;0.65;0.65;;;14.00;99.90;;;;;;5083485;28;20088;-83
2023/10/01 01:55:23;;;;;;;0.10;0.10;;;13.70;99.90;;;;;;5083852;28;20024;-76
2023/10/01 01:58:04;;;;;;;1.02;1.02;;;13.90;99.90;;;;;;5082854;28;20073;-80
2023/10/01 02:00:35;;;;;;;1.10;1.10;;;13.80;99.90;;;;;;5065840;28;20024;-87
2023/10/01 02:03:17;;;;;;;5.78;5.18;;;15.30;99.90;;;;;;5082156;28;20248;-82
2023/10/01 02:05:47;;;;;;;0.57;0.57;;;13.60;99.90;;;;;;5081398;28;20020;-78
2023/10/01 02:08:35;;;;;;;1.58;1.48;;;13.60;99.90;;;;;;5080946;28;20016;-79
2023/10/01 02:11:09;;;;;;;0.63;0.63;;;13.60;99.90;;;;;;5063761;28;20054;-79
2023/10/01 02:13:41;;;;;;;7.25;6.90;;;13.60;99.90;;;;;;5091669;28;20039;-77
2023/10/01 02:16:34;;;;;;;1.98;1.88;;;13.60;99.90;;;;;;5084309;28;20027;-76
2023/10/01 02:19:21;;;;;;;1.92;1.83;;;13.70;99.90;;;;;;5081592;28;20479;-79
2023/10/01 02:22:00;;;;;;;0.57;0.57;;;13.70;99.90;;;;;;5083231;28;20090;-78
2023/10/01 02:24:54;;;;;;;0.10;0.10;;;13.70;99.90;;;;;;5080281;28;20028;-78
2023/10/01 02:27:26;;;;;;;0.82;0.82;;;13.70;99.90;;;;;;5082153;28;20020;-77
2023/10/01 02:32:49;;;;;;;0.20;0.20;;;13.70;99.90;;;;;;5080328;28;20576;-77
2023/10/01 02:35:36;;;;;;;0.10;0.10;;;13.80;99.90;;;;;;5081621;28;20028;-92
2023/10/01 02:38:36;;;;;;;0.00;0.00;;;13.80;99.90;;;;;;5083214;28;20323;-77
2023/10/01 02:41:01;;;;;;;1.45;1.35;;;13.80;99.90;;;;;;5082635;28;20096;-78
2023/10/01 02:43:41;;;;;;;0.10;0.10;;;13.80;99.90;;;;;;5083415;28;20524;-81
2023/10/01 02:46:12;;;;;;;0.20;0.20;;;13.70;99.90;;;;;;5082413;28;20031;-77
2023/10/01 02:48:42;;;;;;;0.10;0.10;;;13.80;99.90;;;;;;5082144;28;20399;-84
2023/10/01 02:51:14;;;;;;;0.30;0.30;;;13.80;99.90;;;;;;5065162;28;20030;-81
2023/10/01 02:56:37;;;;;;;0.63;0.63;;;13.80;99.90;;;;;;5081245;28;20071;-78
2023/10/01 02:59:11;;;;;;;0.43;0.43;;;13.80;99.90;;;;;;5080697;28;20020;-79
2023/10/01 03:01:39;;;;;;;0.10;0.10;;;13.80;99.90;;;;;;5082643;28;20020;-79
2023/10/01 03:04:14;;;;;;;0.10;0.10;;;13.80;99.90;;;;;;5069398;28;20024;-77
2023/10/01 03:06:52;;;;;;;0.10;0.10;;;13.80;99.90;;;;;;5085530;28;20012;-78
2023/10/01 03:09:22;;;;;;;0.08;0.08;;;13.80;99.90;;;;;;5084842;28;20060;-80
2023/10/01 03:12:24;;;;;;;0.38;0.38;;;13.80;99.90;;;;;;5087256;28;20026;-78
2023/10/01 03:14:43;;;;;;;3.42;2.40;;;13.80;99.90;;;;;;5084605;28;20027;-79
2023/10/01 03:17:17;;;;;;;0.00;0.00;;;13.80;99.90;;;;;;5088382;28;20103;-77
2023/10/01 03:19:52;;;;;;;0.28;0.28;;;13.80;99.90;;;;;;5069413;28;20236;-78
2023/10/01 03:22:23;;;;;;;0.75;0.75;;;13.70;99.90;;;;;;5069815;28;20027;-83
2023/10/01 03:24:50;;;;;;;0.10;0.10;;;13.70;99.90;;;;;;5084459;28;20265;-78
2023/10/01 03:27:27;;;;;;;0.10;0.10;;;13.70;99.90;;;;;;5089701;28;20121;-77
2023/10/01 03:30:00;;;;;;;0.40;0.40;;;13.60;99.90;;;;;;5089601;28;20053;-79
2023/10/01 03:32:28;;;;;;;0.10;0.10;;;13.60;99.90;;;;;;5087645;28;20378;-80
2023/10/01 03:35:06;;;;;;;0.10;0.10;;;13.60;99.90;;;;;;5087366;28;20028;-82
2023/10/01 03:37:38;;;;;;;1.95;1.85;;;13.60;99.90;;;;;;5085935;28;20020;-78
2023/10/01 03:40:22;;;;;;;4.68;2.97;;;13.60;99.90;;;;;;5086516;28;20101;-81
2023/10/01 03:42:51;;;;;;;2.08;1.92;;;13.60;99.90;;;;;;5087057;28;20533;-81
2023/10/01 03:48:06;;;;;;;0.10;0.10;;;13.60;99.90;;;;;;5085018;28;20032;-82
2023/10/01 03:50:45;;;;;;;0.98;0.75;;;13.70;99.90;;;;;;5086721;28;20297;-81
2023/10/01 03:53:11;;;;;;;0.10;0.10;;;13.70;99.90;;;;;;5054950;28;20197;-81
2023/10/01 03:55:39;;;;;;;0.20;0.20;;;13.70;99.90;;;;;;5088523;28;20032;-81
2023/10/01 03:58:18;;;;;;;0.10;0.10;;;13.60;99.90;;;;;;5070313;28;20020;-79
2023/10/01 04:00:53;;;;;;;1.55;1.45;;;13.70;99.90;;;;;;5089923;28;20027;-77
2023/10/01 04:03:21;;;;;;;0.30;0.30;;;13.60;99.90;;;;;;5088657;28;20027;-81
2023/10/01 04:05:48;;;;;;;0.10;0.10;;;13.70;99.90;;;;;;5087832;28;20358;-81
2023/10/01 04:08:14;;;;;;;0.10;0.10;;;13.60;99.90;;;;;;5084524;28;20608;-78
2023/10/01 04:10:41;;;;;;;0.10;0.10;;;13.60;99.90;;;;;;5085519;28;20099;-81
2023/10/01 04:13:20;;;;;;;0.10;0.10;;;13.50;99.90;;;;;;5084098;28;20024;-83
2023/10/01 04:15:57;;;;;;;0.55;0.55;;;13.50;99.90;;;;;;5085041;28;20098;-76
2023/10/01 04:18:24;;;;;;;0.10;0.10;;;13.50;99.90;;;;;;5083467;28;20498;-77
2023/10/01 04:23:33;;;;;;;1.35;1.35;;;13.40;99.90;;;;;;5086737;28;20032;-76
2023/10/01 04:26:04;;;;;;;1.40;1.30;;;13.40;99.90;;;;;;5082671;28;20510;-78
2023/10/01 04:28:36;;;;;;;2.15;2.05;;;13.40;99.90;;;;;;5085464;28;20101;-81
2023/10/01 04:31:09;;;;;;;13.60;12.80;;;13.30;99.90;;;;;;5084967;28;20023;-81
2023/10/01 04:33:36;;;;;;;11.33;10.80;;;13.30;99.90;;;;;;5064083;28;20017;-77
2023/10/01 04:36:10;;;;;;;1.08;1.08;;;12.40;99.90;;;;;;5085696;28;20270;-80
2023/10/01 04:38:48;;;;;;;3.03;2.83;;;13.30;99.90;;;;;;5084929;28;20111;-78
2023/10/01 04:41:16;;;;;;;5.15;3.88;;;11.40;99.90;;;;;;5082255;28;20103;-79
2023/10/01 04:43:52;;;;;;;2.05;1.95;;;13.30;99.90;;;;;;5083815;28;20360;-77
2023/10/01 04:46:27;;;;;;;1.77;1.67;;;13.30;99.90;;;;;;5086213;28;20051;-81
2023/10/01 04:49:08;;;;;;;0.25;0.25;;;13.20;99.90;;;;;;5085247;28;20036;-77
2023/10/01 04:51:47;;;;;;;0.10;0.10;;;13.20;99.90;;;;;;5084647;28;20106;-79
2023/10/01 04:54:21;;;;;;;9.32;5.85;;;13.20;99.90;;;;;;5068011;28;20035;-81
2023/10/01 04:56:48;;;;;;;0.40;0.40;;;13.30;99.90;;;;;;5081690;28;20051;-77
2023/10/01 04:59:15;;;;;;;1.27;1.27;;;13.30;99.90;;;;;;5083679;28;20255;-80
2023/10/01 05:01:41;;;;;;;3.83;3.50;;;13.30;99.90;;;;;;5083649;28;20016;-77
2023/10/01 05:04:11;;;;;;;0.10;0.10;;;13.30;99.90;;;;;;5083089;28;20568;-81
2023/10/01 05:06:43;;;;;;;0.38;0.38;;;12.10;99.90;;;;;;5083244;28;20032;-80
2023/10/01 05:09:10;;;;;;;1.60;1.55;;;13.40;99.90;;;;;;5068266;28;20324;-78
2023/10/01 05:11:36;;;;;;;0.55;0.55;;;13.40;99.90;;;;;;5086735;28;20141;-80
2023/10/01 05:14:04;;;;;;;0.10;0.10;;;13.40;99.90;;;;;;5064382;28;20039;-80
2023/10/01 05:16:32;;;;;;;0.28;0.28;;;13.40;99.90;;;;;;5067975;28;20431;-81
2023/10/01 05:19:10;;;;;;;0.32;0.32;;;13.40;99.90;;;;;;5087407;28;20028;-78
2023/10/01 05:21:47;;;;;;;3.88;3.50;;;13.40;99.90;;;;;;5083933;28;20094;-74
2023/10/01 05:24:35;;;;;;;1.95;1.85;;;13.40;99.90;;;;;;5082867;28;20028;-77
2023/10/01 05:27:09;;;;;;;1.75;1.65;;;13.40;99.90;;;;;;5082372;28;20158;-77
2023/10/01 05:29:39;;;;;;;0.05;0.05;;;13.40;99.90;;;;;;5064990;28;20060;-83
2023/10/01 05:32:07;;;;;;;0.32;0.32;;;13.50;99.90;;;;;;5086851;28;20193;-78
2023/10/01 05:34:33;;;;;;;0.50;0.50;;;14.20;99.90;;;;;;5081795;28;20220;-80
2023/10/01 05:37:24;;;;;;;0.08;0.08;;;13.50;99.90;;;;;;5066263;28;20327;-82
2023/10/01 05:40:03;;;;;;;1.25;1.25;;;13.50;99.90;;;;;;5082719;28;20038;-78
2023/10/01 05:42:31;;;;;;;0.15;0.15;;;13.50;99.90;;;;;;5084072;28;20028;-89
2023/10/01 05:44:59;;;;;;;0.10;0.10;;;13.50;99.90;;;;;;5084275;28;20245;-80
2023/10/01 05:47:41;;;;;;;13.23;12.13;;;13.50;99.90;;;;;;5086008;28;20043;-77
2023/10/01 05:50:12;;;;;;;1.30;1.30;;;13.50;99.90;;;;;;5080999;28;20039;-80
2023/10/01 05:52:40;;;;;;;2.25;2.13;;;13.60;99.90;;;;;;5084872;28;20027;-79
2023/10/01 05:55:12;;;;;;;0.38;0.38;;;13.60;99.90;;;;;;5086205;28;20096;-89
2023/10/01 05:57:44;;;;;;;6.88;4.32;;;13.70;99.90;;;;;;5088744;28;20545;-85
2023/10/01 06:00:18;;;;;;;0.20;0.20;;;14.30;99.90;;;;;;5089150;28;20019;-79
2023/10/01 06:03:00;;;;;;;0.10;0.10;;;14.10;99.90;;;;;;5090723;28;20020;-83
2023/10/01 06:05:33;;;;;;;0.22;0.22;;;13.80;99.90;;;;;;5090413;28;20017;-77
2023/10/01 06:08:15;;;;;;;0.10;0.10;;;13.90;99.90;;;;;;5090939;28;20024;-80
2023/10/01 06:11:07;;;;;;;0.10;0.10;;;13.40;99.90;;;;;;5085570;28;20039;-79
2023/10/01 06:13:38;;;;;;;0.00;0.00;;;14.00;99.90;;;;;;5088776;28;20327;-78
2023/10/01 06:16:13;;;;;;;0.10;0.10;;;14.00;99.90;;;;;;5086383;28;20204;-84
2023/10/01 06:18:59;;;;;;;0.22;0.22;;;14.00;99.90;;;;;;5067839;28;20027;-78
2023/10/01 06:21:31;;;;;;;0.10;0.10;;;14.00;99.90;;;;;;5069964;28;20114;-81
2023/10/01 06:24:06;;;;;;;1.15;1.13;;;14.00;99.90;;;;;;5083574;28;20024;-81
2023/10/01 06:26:36;;;;;;;1.45;1.35;;;12.00;99.90;;;;;;5085875;28;20027;-77
2023/10/01 06:29:25;;;;;;;0.60;0.60;;;14.10;99.90;;;;;;5085970;28;20083;-77
2023/10/01 06:31:52;;;;;;;2.17;1.75;;;14.10;99.90;;;;;;5070625;28;20028;-77
2023/10/01 06:34:21;;;;;;;3.17;2.50;;;14.20;99.90;;;;;;5084378;28;20224;-78
2023/10/01 06:36:56;;;;;;;0.52;0.52;;;14.80;99.90;;;;;;5062910;28;20051;-76
2023/10/01 06:39:25;;;;;;;0.10;0.10;;;14.30;99.90;;;;;;5081504;28;20025;-75
2023/10/01 06:42:17;;;;;;;0.10;0.10;;;14.40;99.90;;;;;;5082800;28;20032;-81
2023/10/01 06:44:41;;;;;;;2.58;2.40;;;14.40;99.90;;;;;;5087996;28;20406;-85
2023/10/01 06:47:14;;;;;;;0.10;0.10;;;14.50;99.90;;;;;;5092899;28;20027;-81
2023/10/01 06:52:34;;;;;;;1.95;1.85;;;13.40;99.90;;;;;;5087667;28;20027;-77
2023/10/01 06:55:04;;;;;;;2.53;2.38;;;14.90;99.90;;;;;;5070164;28;20047;-82
2023/10/01 06:57:33;;;;;;;0.28;0.28;;;14.70;99.90;;;;;;5087100;28;20024;-88
2023/10/01 07:00:22;;;;;;;10.57;9.73;;;14.80;99.90;;;;;;5071959;28;20039;-83
2023/10/01 07:03:13;;;;;;;0.20;0.20;;;14.90;99.90;;;;;;5072551;28;20060;-78
2023/10/01 07:05:41;;;;;;;0.30;0.30;;;14.90;99.90;;;;;;5083173;28;20027;-81
2023/10/01 07:08:07;;;;;;;1.50;1.45;;;15.10;99.90;;;;;;5066411;28;20032;-79
2023/10/01 07:10:34;;;;;;;0.30;0.30;;;12.90;99.90;;;;;;5083298;28;20533;-79
2023/10/01 07:13:04;;;;;;;0.63;0.63;;;14.90;99.90;;;;;;5080482;28;20016;-86
2023/10/01 07:15:34;;;;;;;0.10;0.10;;;15.30;99.90;;;;;;5082076;28;20024;-81
2023/10/01 07:18:13;;;;;;;0.10;0.10;;;15.50;99.90;;;;;;5085430;28;20016;-77
2023/10/01 07:20:39;;;;;;;0.03;0.03;;;16.20;99.90;;;;;;5084336;28;20044;-77
2023/10/01 07:23:06;;;;;;;0.43;0.43;;;16.10;99.90;;;;;;5080912;28;20434;-84
2023/10/01 07:25:38;;;;;;;0.10;0.10;;;15.70;99.90;;;;;;5081152;28;20248;-77
2023/10/01 07:28:12;;;;;;;3.33;3.17;;;15.80;99.90;;;;;;5081693;28;20251;-83
2023/10/01 07:30:45;;;;;;;0.30;0.30;;;15.90;99.90;;;;;;5079758;28;20036;-85
2023/10/01 07:33:17;;;;;;;1.25;1.17;;;16.00;99.90;;;;;;5082808;28;20020;-79
2023/10/01 07:35:44;;;;;;;0.10;0.10;;;16.20;99.90;;;;;;5064159;28;20173;-81
2023/10/01 07:38:14;;;;;;;0.30;0.30;;;16.20;99.90;;;;;;5065849;28;20225;-78
2023/10/01 07:40:57;;;;;;;0.10;0.10;;;16.30;99.90;;;;;;5084488;28;20024;-85
2023/10/01 07:43:30;;;;;;;0.68;0.68;;;16.40;99.90;;;;;;5084875;28;20055;-80
2023/10/01 07:46:02;;;;;;;0.00;0.00;;;16.50;99.90;;;;;;5081573;28;20038;-79
2023/10/01 07:48:33;;;;;;;0.10;0.10;;;16.60;99.90;;;;;;5081959;28;20096;-79
2023/10/01 07:51:02;;;;;;;0.10;0.10;;;16.70;99.90;;;;;;5085410;28;20024;-84
2023/10/01 07:53:34;;;;;;;0.57;0.57;;;16.80;99.90;;;;;;5084721;28;20232;-77
2023/10/01 07:56:02;;;;;;;0.10;0.10;;;13.80;99.90;;;;;;5082395;28;20165;-77
2023/10/01 07:58:48;;;;;;;1.08;1.08;;;16.90;99.90;;;;;;5082734;28;20092;-89
2023/10/01 08:01:36;;;;;;;0.57;0.57;;;16.90;99.90;;;;;;5081644;28;20024;-79
2023/10/01 08:04:19;;;;;;;0.22;0.22;;;16.90;99.90;;;;;;5067233;28;20255;-81
2023/10/01 08:06:49;;;;;;;0.53;0.53;;;16.90;99.90;;;;;;5081926;28;20051;-81
2023/10/01 08:09:15;;;;;;;0.25;0.25;;;16.90;99.90;;;;;;5083542;28;20028;-76
2023/10/01 08:12:05;;;;;;;0.70;0.65;;;17.00;99.90;;;;;;5083021;28;20293;-76
2023/10/01 08:14:34;;;;;;;0.30;0.30;;;16.90;99.90;;;;;;5067399;28;20507;-76
2023/10/01 08:17:05;;;;;;;0.10;0.10;;;17.00;99.90;;;;;;5081329;28;20654;-81
2023/10/01 08:19:56;;;;;;;0.10;0.10;;;17.00;99.90;;;;;;5082690;28;20028;-80
2023/10/01 08:22:43;;;;;;;0.00;0.00;;;;;;;;;;5084078;28;20020;-84
2023/10/01 08:25:12;;;;;;;0.15;0.15;;;17.10;99.90;;;;;;5086744;28;20095;-76
2023/10/01 08:28:08;;;;;;;0.00;0.00;;;17.20;99.90;;;;;;5068623;28;20040;-81
2023/10/01 08:30:38;;;;;;;1.35;0.50;;;17.20;99.90;;;;;;5084281;28;20261;-78
2023/10/01 08:33:21;;;;;;;0.00;0.00;;;17.30;99.90;;;;;;5084614;28;20024;-88
2023/10/01 08:35:56;;;;;;;0.10;0.10;;;17.40;99.90;;;;;;5086312;28;20244;-76
2023/10/01 08:38:29;;;;;;;0.55;0.45;;;17.40;99.90;;;;;;5067433;28;20091;-88
2023/10/01 08:41:00;;;;;;;1.23;1.17;;;17.60;99.90;;;;;;5065525;28;20527;-81
2023/10/01 08:43:31;;;;;;;0.43;0.43;;;17.70;99.90;;;;;;5067319;28;20563;-82
2023/10/01 08:46:07;;;;;;;0.10;0.10;;;17.60;99.90;;;;;;5082668;28;20107;-91
2023/10/01 08:48:36;;;;;;;0.65;0.65;;;18.10;99.90;;;;;;5064038;28;20077;-77
2023/10/01 08:51:11;;;;;;;0.38;0.38;;;18.00;99.90;;;;;;5065944;28;20099;-78
2023/10/01 08:53:41;;;;;;;0.25;0.25;;;18.10;99.90;;;;;;5072027;28;20012;-80
2023/10/01 08:56:13;;;;;;;0.73;0.73;;;18.30;99.90;;;;;;5086812;28;20024;-82
2023/10/01 08:58:49;;;;;;;0.38;0.38;;;18.50;99.90;;;;;;5084386;28;20395;-80
2023/10/01 09:01:19;;;;;;;0.00;0.00;;;18.50;99.90;;;;;;5085004;28;20089;-86
2023/10/01 09:03:49;;;;;;;2.33;1.70;;;18.50;99.90;;;;;;5085432;28;20012;-76
2023/10/01 09:06:24;;;;;;;0.50;0.50;;;18.80;99.90;;;;;;5068245;28;20097;-80
2023/10/01 09:08:54;;;;;;;0.03;0.03;;;18.90;99.90;;;;;;5088700;28;20028;-79
2023/10/01 09:11:41;;;;;;;0.00;0.00;;;18.80;99.90;;;;;;5089590;28;20315;-86
2023/10/01 09:14:16;;;;;;;1.23;1.15;;;18.50;99.90;;;;;;5071886;28;20093;-83
2023/10/01 09:16:49;;;;;;;0.55;0.55;;;18.70;99.90;;;;;;5086537;28;20028;-86
2023/10/01 09:19:34;;;;;;;1.02;0.95;;;16.60;99.90;;;;;;5084071;28;20017;-82
2023/10/01 09:25:19;;;;;;;2.30;2.10;;;19.10;99.90;;;;;;5000283;28;20030;-82
2023/10/01 09:27:59;;;;;;;0.08;0.05;;;19.00;99.90;;;;;;4984383;28;20041;-77
2023/10/01 09:30:31;;;;;;;0.38;0.38;;;19.20;99.90;;;;;;5004277;28;20575;-82
2023/10/01 09:33:14;;;;;;;1.33;1.25;;;19.10;99.90;;;;;;4981067;28;20033;-79
2023/10/01 09:35:59;;;;;;;0.15;0.15;;;19.30;99.90;;;;;;4999911;28;20045;-76
2023/10/01 09:38:28;;;;;;;0.93;0.93;;;19.30;99.90;;;;;;4997026;28;20045;-79
2023/10/01 09:40:55;;;;;;;0.10;0.10;;;19.60;99.90;;;;;;4999601;28;20044;-87
2023/10/01 09:43:27;;;;;;;0.28;0.28;;;19.80;99.90;;;;;;4986091;28;20284;-80
2023/10/01 09:46:11;;;;;;;0.30;0.30;;;20.00;99.90;;;;;;5020632;28;20029;-76
2023/10/01 09:48:48;;;;;;;0.08;0.08;;;20.30;99.90;;;;;;5003626;28;20330;-84
2023/10/01 09:51:15;;;;;;;0.95;0.95;;;20.60;99.90;;;;;;5003590;28;20334;-84
2023/10/01 09:54:00;;;;;;;0.43;0.38;;;21.00;99.90;;;;;;5019383;28;20064;-82
2023/10/01 09:56:26;;;;;;;0.28;0.28;;;21.20;99.90;;;;;;5017220;28;20586;-83
2023/10/01 09:59:01;;;;;;;0.43;0.43;;;21.40;99.90;;;;;;5001562;28;20030;-78
2023/10/01 10:01:31;;;;;;;0.03;0.03;;;21.60;99.90;;;;;;5048450;28;20028;-77
2023/10/01 10:04:01;;;;;;;5.80;5.38;;;21.90;99.90;;;;;;5058023;28;20092;-78
2023/10/01 10:06:28;;;;;;;1.50;1.40;;;21.80;99.90;;;;;;5058194;28;20071;-81
2023/10/01 10:09:04;;;;;;;0.45;0.45;;;21.90;99.90;;;;;;5041572;28;20104;-78
2023/10/01 10:11:40;;;;;;;0.00;0.00;;;22.80;99.90;;;;;;5057503;28;20099;-76
2023/10/01 10:14:27;;;;;;;0.00;0.00;;;21.40;99.90;;;;;;5038707;28;20610;-79
2023/10/01 10:17:18;;;;;;;0.10;0.10;;;20.90;99.90;;;;;;5057506;28;20478;-76
2023/10/01 10:20:25;;;;;;;0.00;0.00;;;21.90;99.90;;;;;;5060394;28;20074;-82
2023/10/01 10:23:16;;;;;;;0.00;0.00;;;21.80;99.90;;;;;;5062015;28;20028;-78
2023/10/01 10:25:43;;;;;;;0.00;0.00;;;21.10;99.90;;;;;;5062003;28;20025;-86
2023/10/01 10:28:24;;;;;;;0.10;0.10;;;21.20;99.90;;;;;;5068725;28;20331;-78
2023/10/01 10:31:29;;;;;;;1.20;1.20;;;21.00;99.90;;;;;;5082775;28;20075;-78
2023/10/01 10:34:21;;;;;;;1.13;1.10;;;21.00;99.90;;;;;;5063583;28;20478;-84
2023/10/01 10:36:51;;;;;;;0.00;0.00;;;20.90;99.90;;;;;;5082822;28;20111;-76
2023/10/01 10:39:45;;;;;;;0.10;0.10;;;18.70;99.90;;;;;;5069275;28;20027;-77
2023/10/01 10:42:30;;;;;;;0.00;0.00;;;20.60;99.90;;;;;;5085967;28;20026;-79
2023/10/01 10:45:21;;;;;;;0.10;0.10;;;20.50;99.90;;;;;;5068229;28;20031;-74
2023/10/01 10:48:03;;;;;;;0.10;0.10;;;20.80;99.90;;;;;;5073966;28;20048;-86
2023/10/01 10:50:56;;;;;;;0.10;0.10;;;21.30;99.90;;;;;;5086254;28;20073;-92
2023/10/01 10:53:37;;;;;;;0.00;0.00;;;20.80;99.90;;;;;;5087582;28;20016;-77
2023/10/01 10:56:04;;;;;;;0.30;0.30;;;20.90;99.90;;;;;;5084273;28;20020;-88
2023/10/01 10:58:37;;;;;;;0.00;0.00;;;21.20;99.90;;;;;;5085361;28;20032;-85
2023/10/01 11:01:19;;;;;;;1.27;1.17;;;21.50;99.90;;;;;;5065340;28;20363;-78
2023/10/01 11:04:05;;;;;;;0.55;0.55;;;21.60;99.90;;;;;;5064920;28;20053;-78
2023/10/01 11:06:42;;;;;;;1.85;1.75;;;21.90;99.90;;;;;;5062783;28;20327;-82
2023/10/01 11:09:27;;;;;;;0.00;0.00;;;22.00;99.90;;;;;;5080734;28;20381;-77
2023/10/01 11:12:00;;;;;;;1.95;1.30;;;21.60;99.90;;;;;;5064845;28;20308;-83
2023/10/01 11:14:27;;;;;;;0.00;0.00;;;22.30;99.90;;;;;;5085016;28;20017;-77
2023/10/01 11:16:53;;;;;;;0.32;0.32;;;22.50;99.90;;;;;;5084299;28;20100;-77
2023/10/01 11:19:27;;;;;;;0.08;0.08;;;22.00;99.90;;;;;;5083039;28;20052;-77
2023/10/01 11:22:00;;;;;;;0.40;0.30;;;21.90;99.90;;;;;;5082787;28;20042;-78
2023/10/01 11:24:39;;;;;;;0.00;0.00;;;21.70;99.90;;;;;;5088721;28;20028;-79
2023/10/01 11:35:33;;;;;;;0.35;0.35;;;22.00;99.90;;;;;;5000211;28;20103;-77
2023/10/01 11:38:13;;;;;;;0.10;0.10;;;23.20;99.90;;;;;;5003623;28;20329;-75
2023/10/01 11:43:38;;;;;;;0.00;0.00;;;23.30;99.00;;;;;;5003285;28;20463;-81
2023/10/01 11:46:20;;;;;;;0.10;0.10;;;23.60;97.90;;;;;;5002707;28;20030;-78
2023/10/01 11:49:04;;;;;;;1.58;0.32;;;23.90;97.90;;;;;;5002108;28;20053;-76
2023/10/01 11:51:50;;;;;;;0.32;0.32;;;23.80;97.30;;;;;;5003080;28;20065;-79
2023/10/01 11:54:20;;;;;;;0.00;0.00;;;23.80;97.30;;;;;;5002390;28;20390;-82
2023/10/01 11:57:07;;;;;;;0.20;0.20;;;23.40;97.30;;;;;;5002148;28;20215;-83
2023/10/01 11:59:42;;;;;;;0.00;0.00;;;23.40;97.60;;;;;;4988668;28;20128;-83
2023/10/01 12:02:20;;;;;;;0.00;0.00;;;23.50;97.50;;;;;;4999441;28;20057;-81
2023/10/01 12:04:57;;;;;;;1.27;0.90;;;23.90;97.40;;;;;;5005447;28;20026;-76
2023/10/01 12:07:26;;;;;;;0.10;0.10;;;24.00;96.60;;;;;;5034491;28;20044;-75
2023/10/01 12:09:54;;;;;;;0.00;0.00;;;24.10;96.20;;;;;;5062920;28;20528;-75
2023/10/01 12:12:39;;;;;;;0.00;0.00;;;24.10;96.00;;;;;;5063954;28;20039;-74
2023/10/01 12:17:53;;;;;;;0.17;0.17;;;24.00;95.20;;;;;;5080677;28;20081;-75
2023/10/01 12:20:22;;;;;;;0.10;0.10;;;23.70;95.30;;;;;;5080034;28;20024;-75
2023/10/01 12:23:10;;;;;;;0.10;0.10;;;22.90;95.30;;;;;;5062507;28;20020;-75
2023/10/01 12:25:46;;;;;;;0.17;0.17;;;23.20;95.60;;;;;;5062173;28;20067;-75
2023/10/01 12:28:24;;;;;;;0.38;0.38;;;23.40;97.00;;;;;;5060937;28;20131;-80
2023/10/01 12:31:00;;;;;;;0.10;0.10;;;23.70;95.70;;;;;;5080055;28;20494;-75
2023/10/01 12:33:40;;;;;;;0.40;0.40;;;24.10;95.40;;;;;;5063172;28;20335;-75
2023/10/01 12:36:31;;;;;;;0.10;0.10;;;24.60;95.70;;;;;;5065192;28;20028;-82
2023/10/01 12:39:16;;;;;;;0.00;0.00;;;25.10;95.90;;;;;;5064478;28;20039;-76
2023/10/01 12:44:25;;;;;;;0.45;0.45;;;24.70;94.00;;;;;;5084329;28;20023;-76
2023/10/01 12:46:51;;;;;;;0.00;0.00;;;24.60;94.00;;;;;;5065091;28;20385;-76
2023/10/01 12:49:18;;;;;;;1.00;1.00;;;24.40;94.10;;;;;;5083035;28;20091;-79
2023/10/01 12:51:53;;;;;;;1.02;0.35;;;24.30;94.60;;;;;;5080108;28;20387;-74
2023/10/01 12:54:26;;;;;;;0.00;0.00;;;24.30;95.00;;;;;;5060990;28;20020;-75
2023/10/01 12:59:38;;;;;;;0.00;0.00;;;24.60;93.60;;;;;;5079687;28;20034;-75
2023/10/01 13:02:05;;;;;;;0.00;0.00;;;25.00;92.40;;;;;;5060826;28;20047;-75
2023/10/01 13:04:32;;;;;;;0.00;0.00;;;25.10;91.10;;;;;;5060632;28;20328;-75
2023/10/01 13:07:03;;;;;;;0.52;0.43;;;25.60;87.30;;;;;;5061090;28;20020;-75
2023/10/01 13:12:17;;;;;;;0.00;0.00;;;26.20;73.40;;;;;;5081233;28;20024;-76
2023/10/01 13:15:02;;;;;;;0.30;0.30;;;26.40;69.10;;;;;;5060925;28;20304;-75
2023/10/01 13:17:35;;;;;;;0.00;0.00;;;26.50;66.80;;;;;;5060944;28;20047;-75
2023/10/01 13:20:18;;;;;;;0.00;0.00;;;26.70;66.20;;;;;;5060422;28;20036;-75
2023/10/01 13:22:48;;;;;;;0.00;0.00;;;27.10;67.00;;;;;;5060766;28;20025;-75
2023/10/01 13:25:23;;;;;;;0.00;0.00;;;27.50;65.20;;;;;;5061295;28;20328;-75
2023/10/01 13:28:01;;;;;;;0.10;0.10;;;27.50;65.70;;;;;;5060006;28;20040;-75
2023/10/01 13:30:28;;;;;;;0.00;0.00;;;27.90;65.30;;;;;;5079634;28;20101;-75
2023/10/01 13:35:50;;;;;;;0.10;0.10;;;28.30;64.10;;;;;;5080303;28;20051;-77
2023/10/01 14:11:08;;;;;;;0.00;0.00;;;29.40;59.10;;;;;;5078057;28;20105;-76
2023/10/01 14:14:16;;;;;;;1.17;0.65;;;29.20;58.40;;;;;;5078604;28;20058;-75
2023/10/01 14:16:53;;;;;;;0.15;0.15;;;29.10;57.20;;;;;;5061145;28;20445;-86
2023/10/01 14:19:19;;;;;;;0.03;0.03;;;29.10;56.30;;;;;;5077429;28;20089;-74
2023/10/01 14:21:51;;;;;;;4.72;0.15;;;29.10;52.20;;;;;;5059625;28;20612;-75
2023/10/01 14:24:26;;;;;;;0.35;0.13;;;28.10;53.50;;;;;;5061376;28;20119;-75
2023/10/01 14:26:55;;;;;;;0.00;0.00;;;29.10;53.10;;;;;;5078185;28;20209;-75
2023/10/01 14:29:24;;;;;;;0.00;0.00;;;29.20;53.60;;;;;;5077639;28;20117;-75
2023/10/01 14:31:53;;;;;;;0.50;0.28;;;30.70;54.10;;;;;;5059883;28;20077;-76
2023/10/01 14:34:20;;;;;;;0.00;0.00;;;28.90;53.20;;;;;;5060942;28;20332;-76
2023/10/01 14:36:51;;;;;;;0.00;0.00;;;29.20;53.20;;;;;;5064644;28;20574;-82
2023/10/01 14:39:19;;;;;;;0.00;0.00;;;26.20;51.50;;;;;;5079885;28;20028;-78